Christmas Island, Australian Islands

9:06 AM CXT on March 07, 2015 (GMT +0700)
Christmas Island | Change Station
CLOSE
Current Station
Personal Weather Station
Location: Christmas Island, WESTERN AUSTRALIA
Elevation: 732 ft
Nearby Weather Stations

Elev 732 ft 10.42 °S, 105.69 °E | Updated 1 minute ago

Heavy Rain Showers
Heavy Showers Rain
75.9 °F
Feels Like 76 °F
N
8.0
Wind Variable Wind from West
Gusts 10.0 mph

Today
High -- | Low -- °F
--% Chance of Precip.
Yesterday
High -- | Low -- °F
Precip. -- in
6:01 AM 6:15 PM
Full, 98% visible
Pressure 29.89 in
Visibility 1.7 miles
Clouds Mostly Cloudy 1400 ft
Mostly Cloudy 2000 ft
Overcast 2900 ft
Heat Index 76 °F
Dew Point 73 °F
Humidity 89%
Rainfall in
Snow Depth Not available.
UV 2 out of 12
Pollen Not available.
Air Quality Not available.
Flu Activity Not available.
SPECI YPXM 070200Z AUTO 28003KT 2800 +SHRA BKN014 BKN020 OVC029 25/24 Q1012

More Conditions Fewer Conditions

Pressure 29.89 in
Visibility 1.7 miles
Clouds Mostly Cloudy 1400 ft
Mostly Cloudy 2000 ft
Overcast 2900 ft
Heat Index 76 °F
Dew Point 73 °F
Humidity 89%
Rainfall in
Snow Depth Not available.
UV 2 out of 12
Pollen Not available.
Air Quality Not available.
Flu Activity Not available.
SPECI YPXM 070200Z AUTO 28003KT 2800 +SHRA BKN014 BKN020 OVC029 25/24 Q1012

More Conditions Fewer Conditions

10-Day Weather Forecast

Almanac

Astronomy

Mar. 07, 2015 Rise Set
Actual Time
Civil Twilight
Nautical Twilight
Astronomical Twilight
Moon
Length of Visible Light
Length of Day
Tomorrow will be .
, % of the Moon is Illuminated

Today's Extremes

Country Highs Country Lows

Community

WunderPhotos

Upload Photos

1,803,497 photos uploaded!

WunderBlogs® & News

Nearby

Air Quality

  Air Quality AQ Index Pollutant
Not available.

Snow Depth

Station Depth Elevation

Earthquake Activity

City Distance Mag. Time & Date
Minimum magnitude displayed is 2.5.

Coastal Water Temperatures

Place Temperature

Nearby Weather Stations